createdAt,value
2022-12-14T00:01:30.007Z,4.40
2022-12-14T00:04:12.502Z,5.43
2022-12-14T00:06:47.558Z,4.60
2022-12-14T00:09:23.501Z,5.15
2022-12-14T00:11:57.811Z,6.22
2022-12-14T00:14:38.720Z,5.63
2022-12-14T00:17:14.624Z,4.47
2022-12-14T00:19:51.132Z,5.50
2022-12-14T00:22:32.426Z,5.35
2022-12-14T00:25:05.089Z,5.15
2022-12-14T00:27:36.322Z,5.63
2022-12-14T00:30:21.591Z,4.53
2022-12-14T00:32:51.939Z,4.43
2022-12-14T00:35:22.229Z,4.78
2022-12-14T00:37:56.565Z,4.55
2022-12-14T00:40:27.347Z,4.22
2022-12-14T00:42:56.905Z,4.28
2022-12-14T00:45:26.459Z,5.15
2022-12-14T00:47:56.449Z,4.43
2022-12-14T00:50:26.237Z,4.50
2022-12-14T00:52:55.799Z,4.22
2022-12-14T00:55:25.471Z,4.13
2022-12-14T00:57:55.157Z,4.30
2022-12-14T01:00:24.746Z,4.20
2022-12-14T01:02:54.278Z,3.97
2022-12-14T01:05:23.946Z,3.70
2022-12-14T01:07:53.538Z,3.78
2022-12-14T01:10:23.156Z,3.92
2022-12-14T01:12:52.765Z,3.90
2022-12-14T01:15:22.363Z,4.25
2022-12-14T01:17:54.093Z,4.18
2022-12-14T01:20:23.772Z,4.45
2022-12-14T01:22:59.680Z,3.80
2022-12-14T01:25:29.253Z,3.72
2022-12-14T01:27:58.827Z,3.47
2022-12-14T01:30:28.508Z,3.42
2022-12-14T01:32:58.142Z,3.50
2022-12-14T01:35:27.742Z,3.75
2022-12-14T01:37:57.303Z,3.75
2022-12-14T01:40:26.922Z,4.30
2022-12-14T01:42:56.522Z,4.38
2022-12-14T01:45:26.147Z,3.90
2022-12-14T01:48:03.836Z,4.13
2022-12-14T01:50:39.901Z,4.15
2022-12-14T01:53:14.899Z,3.53
2022-12-14T01:55:48.790Z,3.55
2022-12-14T01:58:25.731Z,3.17
2022-12-14T02:01:02.297Z,3.15
2022-12-14T02:03:44.724Z,4.28
2022-12-14T02:06:26.766Z,3.72
2022-12-14T02:08:59.012Z,3.70
2022-12-14T02:11:51.470Z,3.22
2022-12-14T02:14:21.102Z,3.40
2022-12-14T02:16:55.172Z,3.42
2022-12-14T02:19:24.837Z,3.65
2022-12-14T02:22:12.791Z,3.92
2022-12-14T02:25:03.472Z,3.30
2022-12-14T02:28:09.797Z,3.30
2022-12-14T02:30:44.707Z,3.33
2022-12-14T02:33:35.593Z,3.60
2022-12-14T02:36:20.718Z,3.45
2022-12-14T02:38:56.291Z,4.13
2022-12-14T02:42:05.442Z,3.15
2022-12-14T02:44:47.440Z,3.40
2022-12-14T02:47:38.507Z,4.50
2022-12-14T02:50:18.470Z,3.65
2022-12-14T02:53:04.698Z,3.40
2022-12-14T02:55:39.718Z,3.63
2022-12-14T02:58:19.624Z,3.45
2022-12-14T03:00:50.213Z,3.67
2022-12-14T03:03:19.814Z,3.45
2022-12-14T03:06:16.042Z,3.85
2022-12-14T03:08:49.378Z,3.33
2022-12-14T03:11:27.024Z,3.38
2022-12-14T03:14:08.642Z,3.60
2022-12-14T03:16:49.390Z,3.78
2022-12-14T03:19:51.059Z,3.17
2022-12-14T03:22:27.220Z,3.40
2022-12-14T03:25:03.745Z,3.45
2022-12-14T03:27:38.542Z,4.15
2022-12-14T03:30:14.640Z,3.80
2022-12-14T03:32:55.856Z,4.10
2022-12-14T03:35:35.389Z,3.40
2022-12-14T03:38:36.877Z,3.85
2022-12-14T03:41:24.700Z,3.47
2022-12-14T03:44:21.533Z,3.67
2022-12-14T03:47:09.323Z,3.45
2022-12-14T03:49:52.736Z,2.97
2022-12-14T03:52:25.171Z,3.47
2022-12-14T03:55:05.721Z,3.90
2022-12-14T03:58:05.780Z,3.72
2022-12-14T04:00:45.010Z,3.20
2022-12-14T04:03:39.784Z,3.33
2022-12-14T04:06:29.366Z,3.38
2022-12-14T04:09:20.299Z,4.05
2022-12-14T04:12:18.428Z,3.70
2022-12-14T04:15:21.171Z,3.95
2022-12-14T04:18:32.846Z,3.53
2022-12-14T04:21:26.275Z,4.50
2022-12-14T04:24:20.949Z,3.72
2022-12-14T04:27:04.341Z,3.58
2022-12-14T04:29:54.911Z,3.28
2022-12-14T04:33:02.397Z,3.92
2022-12-14T04:35:37.614Z,3.70
2022-12-14T04:38:17.570Z,3.42
2022-12-14T04:40:52.485Z,3.55
2022-12-14T04:43:30.298Z,3.63
2022-12-14T04:46:22.382Z,3.50
2022-12-14T04:49:25.072Z,2.97
2022-12-14T04:52:09.880Z,3.15
2022-12-14T04:55:00.070Z,3.45
2022-12-14T04:57:38.757Z,3.58
2022-12-14T05:00:09.022Z,3.95
2022-12-14T05:03:12.375Z,3.50
2022-12-14T05:06:38.798Z,3.28
2022-12-14T05:09:21.657Z,3.40
2022-12-14T05:12:07.561Z,3.42
2022-12-14T05:14:50.127Z,3.47
2022-12-14T05:17:20.416Z,3.88
2022-12-14T05:19:51.932Z,3.75
2022-12-14T05:22:22.204Z,3.70
2022-12-14T05:24:51.804Z,4.40
2022-12-14T05:27:21.368Z,3.40
2022-12-14T05:29:50.920Z,3.13
2022-12-14T05:32:20.624Z,3.33
2022-12-14T05:34:50.183Z,3.30
2022-12-14T05:37:19.708Z,4.32
2022-12-14T05:39:49.343Z,3.92
2022-12-14T05:42:19.002Z,3.60
2022-12-14T05:44:48.648Z,3.63
2022-12-14T05:47:18.278Z,3.53
2022-12-14T05:49:49.390Z,3.53
2022-12-14T05:52:19.624Z,3.35
2022-12-14T05:54:49.188Z,3.55
2022-12-14T05:57:18.730Z,3.58
2022-12-14T05:59:48.435Z,3.55
2022-12-14T06:02:18.180Z,3.33
2022-12-14T06:04:47.889Z,3.55
2022-12-14T06:07:17.997Z,3.00
2022-12-14T06:09:49.305Z,3.45
2022-12-14T06:12:18.933Z,3.97
2022-12-14T06:14:48.626Z,3.00
2022-12-14T06:17:18.213Z,2.88
2022-12-14T06:19:49.957Z,3.58
2022-12-14T06:22:20.682Z,3.38
2022-12-14T06:24:50.243Z,3.42
2022-12-14T06:27:19.774Z,3.20
2022-12-14T06:29:49.372Z,3.47
2022-12-14T06:32:18.946Z,3.22
2022-12-14T06:34:48.596Z,3.20
2022-12-14T06:37:18.222Z,3.13
2022-12-14T06:39:53.956Z,3.17
2022-12-14T06:42:23.925Z,3.75
2022-12-14T06:44:53.503Z,3.30
2022-12-14T06:47:23.134Z,2.92
2022-12-14T06:49:52.867Z,3.05
2022-12-14T06:52:26.724Z,3.63
2022-12-14T06:54:56.818Z,3.80
2022-12-14T06:57:26.363Z,3.55
2022-12-14T06:59:55.887Z,3.10
2022-12-14T07:02:25.686Z,3.22
2022-12-14T07:04:55.392Z,3.55
2022-12-14T07:07:24.919Z,3.40
2022-12-14T07:09:54.561Z,3.33
2022-12-14T07:12:24.103Z,3.17
2022-12-14T07:14:53.657Z,3.22
2022-12-14T07:17:24.032Z,3.47
2022-12-14T07:19:54.782Z,3.38
2022-12-14T07:22:24.687Z,3.10
2022-12-14T07:24:54.597Z,3.47
2022-12-14T07:27:25.556Z,2.88
2022-12-14T07:29:55.129Z,3.15
2022-12-14T07:32:25.377Z,3.38
2022-12-14T07:34:54.879Z,3.00
2022-12-14T07:37:24.426Z,2.90
2022-12-14T07:39:53.991Z,3.40
2022-12-14T07:42:23.522Z,3.13
2022-12-14T07:44:53.070Z,3.58
2022-12-14T07:47:22.616Z,3.38
2022-12-14T07:49:52.271Z,3.03
2022-12-14T07:52:21.832Z,3.40
2022-12-14T07:54:51.403Z,3.53
2022-12-14T07:57:20.972Z,3.13
2022-12-14T07:59:57.129Z,3.22
2022-12-14T08:02:27.104Z,3.00
2022-12-14T08:04:56.749Z,3.20
2022-12-14T08:07:26.278Z,3.15
2022-12-14T08:09:55.883Z,3.50
2022-12-14T08:12:25.434Z,3.20
2022-12-14T08:14:54.984Z,3.75
2022-12-14T08:17:24.593Z,3.17
2022-12-14T08:19:54.149Z,3.55
2022-12-14T08:22:23.767Z,3.70
2022-12-14T08:24:53.350Z,3.40
2022-12-14T08:27:23.488Z,3.58
2022-12-14T08:29:53.084Z,3.63
2022-12-14T08:32:22.620Z,3.20
2022-12-14T08:34:52.147Z,3.97
2022-12-14T08:37:21.692Z,3.60
2022-12-14T08:39:51.295Z,3.33
2022-12-14T08:42:20.780Z,3.45
2022-12-14T08:44:50.314Z,3.55
2022-12-14T08:47:19.913Z,3.17
2022-12-14T08:49:49.500Z,3.08
2022-12-14T08:52:19.073Z,3.50
2022-12-14T08:54:48.589Z,3.58
2022-12-14T08:57:18.156Z,3.40
2022-12-14T09:00:03.234Z,3.00
2022-12-14T09:02:33.218Z,3.30
2022-12-14T09:05:03.018Z,3.25
2022-12-14T09:07:33.403Z,3.28
2022-12-14T09:10:02.967Z,4.07
2022-12-14T09:12:32.513Z,2.90
2022-12-14T09:15:02.584Z,3.42
2022-12-14T09:17:32.142Z,3.10
2022-12-14T09:20:01.673Z,3.03
2022-12-14T09:22:31.297Z,3.40
2022-12-14T09:25:00.820Z,3.00
2022-12-14T09:27:30.605Z,3.40
2022-12-14T09:30:00.216Z,3.55
2022-12-14T09:32:31.816Z,2.72
2022-12-14T09:35:01.364Z,2.78
2022-12-14T09:37:30.897Z,3.10
2022-12-14T09:40:00.499Z,2.90
2022-12-14T09:42:53.271Z,3.33
2022-12-14T09:45:37.290Z,3.00
2022-12-14T09:48:21.863Z,3.53
2022-12-14T09:50:54.427Z,2.92
2022-12-14T09:53:25.032Z,3.05
2022-12-14T09:55:57.935Z,2.95
2022-12-14T09:58:32.811Z,2.88
2022-12-14T10:01:24.079Z,2.60
2022-12-14T10:04:18.080Z,3.03
2022-12-14T10:07:02.720Z,2.72
2022-12-14T10:09:45.444Z,3.20
2022-12-14T10:12:38.308Z,3.00
2022-12-14T10:15:12.809Z,3.15
2022-12-14T10:18:49.908Z,2.80
2022-12-14T10:21:19.334Z,3.17
2022-12-14T10:24:04.918Z,2.95
2022-12-14T10:26:46.250Z,3.13
2022-12-14T10:29:31.708Z,3.25
2022-12-14T10:32:17.994Z,2.70
2022-12-14T10:34:47.549Z,3.05
2022-12-14T10:37:17.086Z,3.05
2022-12-14T10:39:59.426Z,2.85
2022-12-14T10:42:34.154Z,2.92
2022-12-14T10:48:17.161Z,3.17
2022-12-14T10:50:55.697Z,2.97
2022-12-14T10:53:40.375Z,2.80
2022-12-14T10:56:22.476Z,2.85
2022-12-14T10:59:22.851Z,2.70
2022-12-14T11:01:59.445Z,2.70
2022-12-14T11:04:41.077Z,2.78
2022-12-14T11:07:13.589Z,2.70
2022-12-14T11:09:43.698Z,2.28
2022-12-14T11:12:16.047Z,2.55
2022-12-14T11:15:01.683Z,2.72
2022-12-14T11:17:41.700Z,2.35
2022-12-14T11:20:26.887Z,2.85
2022-12-14T11:22:59.396Z,2.42
2022-12-14T11:25:38.155Z,2.92
2022-12-14T11:28:36.917Z,2.78
2022-12-14T11:31:23.412Z,2.67
2022-12-14T11:33:59.094Z,3.30
2022-12-14T11:36:44.172Z,3.17
2022-12-14T11:39:16.950Z,2.72
2022-12-14T11:42:02.463Z,3.20
2022-12-14T11:44:38.204Z,2.60
2022-12-14T11:47:14.209Z,2.67
2022-12-14T11:49:43.703Z,3.20
2022-12-14T11:52:24.170Z,2.88
2022-12-14T11:54:59.692Z,3.72
2022-12-14T11:57:40.234Z,2.97
2022-12-14T12:00:47.365Z,2.83
2022-12-14T12:03:27.238Z,2.80
2022-12-14T12:06:02.151Z,2.88
2022-12-14T12:08:34.797Z,2.95
2022-12-14T12:11:08.109Z,3.08
2022-12-14T12:13:41.561Z,2.63
2022-12-14T12:16:25.838Z,3.00
2022-12-14T12:19:00.424Z,3.10
2022-12-14T12:21:36.516Z,2.70
2022-12-14T12:24:22.490Z,2.92
2022-12-14T12:27:05.165Z,3.53
2022-12-14T12:29:40.385Z,2.97
2022-12-14T12:32:28.310Z,3.15
2022-12-14T12:35:12.694Z,2.67
2022-12-14T12:38:23.255Z,2.78
2022-12-14T12:41:17.277Z,3.03
2022-12-14T12:43:56.601Z,2.60
2022-12-14T12:46:35.939Z,2.80
2022-12-14T12:49:17.774Z,3.20
2022-12-14T12:52:22.218Z,3.38
2022-12-14T12:57:32.051Z,2.80
2022-12-14T13:00:03.321Z,3.15
2022-12-14T13:02:40.083Z,3.03
2022-12-14T13:08:32.943Z,3.15
2022-12-14T13:11:26.049Z,3.45
2022-12-14T13:14:05.763Z,3.20
2022-12-14T13:16:39.690Z,2.78
2022-12-14T13:19:50.243Z,3.33
2022-12-14T13:22:30.581Z,3.15
2022-12-14T13:25:07.399Z,3.20
2022-12-14T13:27:51.651Z,3.40
2022-12-14T13:30:32.021Z,3.00
2022-12-14T13:33:28.068Z,2.78
2022-12-14T13:36:47.187Z,3.00
2022-12-14T13:39:33.048Z,2.90
2022-12-14T13:42:22.064Z,3.05
2022-12-14T13:45:02.335Z,3.13
2022-12-14T13:47:56.789Z,2.53
2022-12-14T13:50:57.426Z,3.08
2022-12-14T13:53:39.938Z,2.78
2022-12-14T13:56:10.870Z,2.92
2022-12-14T13:58:44.446Z,3.20
2022-12-14T14:01:50.454Z,2.80
2022-12-14T14:04:21.662Z,3.03
2022-12-14T14:07:18.173Z,3.45
2022-12-14T14:10:04.820Z,3.20
2022-12-14T14:12:38.647Z,3.33
2022-12-14T14:15:11.291Z,3.00
2022-12-14T14:17:51.212Z,2.70
2022-12-14T14:20:35.722Z,3.35
2022-12-14T14:23:17.537Z,3.47
2022-12-14T14:26:18.569Z,2.95
2022-12-14T14:28:50.483Z,3.10
2022-12-14T14:31:20.152Z,3.05
2022-12-14T14:33:57.697Z,2.83
2022-12-14T14:36:34.721Z,2.75
2022-12-14T14:39:38.327Z,2.63
2022-12-14T14:42:02.555Z,2.97
2022-12-14T14:44:52.365Z,3.20
2022-12-14T14:47:28.691Z,3.38
2022-12-14T14:50:25.750Z,3.28
2022-12-14T14:53:03.866Z,2.95
2022-12-14T14:55:52.697Z,2.88
2022-12-14T14:58:36.750Z,3.60
2022-12-14T15:01:09.686Z,3.10
2022-12-14T15:03:51.103Z,3.10
2022-12-14T15:06:28.060Z,2.53
2022-12-14T15:09:04.004Z,3.30
2022-12-14T15:11:44.565Z,3.10
2022-12-14T15:14:37.171Z,2.97
2022-12-14T15:17:22.173Z,2.65
2022-12-14T15:19:55.824Z,3.28
2022-12-14T15:25:18.467Z,3.38
2022-12-14T15:27:49.793Z,3.28
2022-12-14T15:30:29.990Z,3.53
2022-12-14T15:33:09.776Z,2.70
2022-12-14T15:35:44.041Z,3.10
2022-12-14T15:38:19.009Z,3.38
2022-12-14T15:41:18.758Z,3.55
2022-12-14T15:43:55.099Z,3.30
2022-12-14T15:46:40.128Z,3.30
2022-12-14T15:49:23.154Z,3.35
2022-12-14T15:51:53.825Z,3.20
2022-12-14T15:54:28.409Z,3.30
2022-12-14T15:57:00.363Z,3.10
2022-12-14T15:59:38.018Z,3.17
2022-12-14T16:02:16.996Z,2.80
2022-12-14T16:04:47.626Z,3.17
2022-12-14T16:07:41.352Z,2.90
2022-12-14T16:10:27.624Z,3.17
2022-12-14T16:13:05.916Z,3.25
2022-12-14T16:15:35.705Z,3.30
2022-12-14T16:18:05.943Z,3.30
2022-12-14T16:20:39.838Z,3.05
2022-12-14T16:23:44.950Z,2.95
2022-12-14T16:26:17.900Z,2.95
2022-12-14T16:28:48.022Z,3.50
2022-12-14T16:31:26.236Z,3.28
2022-12-14T16:34:29.047Z,3.63
2022-12-14T16:39:54.633Z,2.90
2022-12-14T16:42:26.605Z,3.63
2022-12-14T16:44:56.322Z,2.97
2022-12-14T16:47:37.804Z,3.25
2022-12-14T16:50:55.000Z,2.92
2022-12-14T16:53:19.004Z,2.65
2022-12-14T16:56:08.758Z,3.20
2022-12-14T16:58:38.951Z,3.40
2022-12-14T17:01:11.123Z,3.33
2022-12-14T17:03:40.965Z,3.83
2022-12-14T17:06:19.703Z,2.97
2022-12-14T17:08:49.318Z,3.63
2022-12-14T17:11:19.066Z,3.13
2022-12-14T17:13:49.612Z,3.10
2022-12-14T17:16:22.874Z,3.20
2022-12-14T17:18:52.529Z,2.88
2022-12-14T17:21:30.042Z,3.40
2022-12-14T17:24:00.366Z,3.20
2022-12-14T17:26:32.790Z,3.55
2022-12-14T17:29:02.331Z,3.85
2022-12-14T17:31:32.003Z,3.55
2022-12-14T17:34:01.622Z,3.22
2022-12-14T17:36:31.137Z,3.45
2022-12-14T17:39:00.654Z,3.38
2022-12-14T17:41:30.322Z,3.67
2022-12-14T17:44:00.198Z,3.60
2022-12-14T17:46:30.932Z,3.17
2022-12-14T17:49:06.325Z,2.78
2022-12-14T17:51:43.238Z,3.92
2022-12-14T17:54:19.092Z,3.55
2022-12-14T17:56:48.891Z,3.50
2022-12-14T17:59:18.396Z,3.70
2022-12-14T18:01:47.957Z,3.38
2022-12-14T18:04:19.356Z,3.42
2022-12-14T18:06:49.279Z,4.32
2022-12-14T18:09:20.038Z,3.38
2022-12-14T18:12:21.385Z,3.55
2022-12-14T18:14:39.099Z,3.45
2022-12-14T18:17:11.602Z,3.97
2022-12-14T18:19:41.858Z,3.63
2022-12-14T18:22:13.079Z,3.72
2022-12-14T18:24:42.729Z,3.80
2022-12-14T18:27:12.255Z,3.40
2022-12-14T18:29:41.803Z,3.80
2022-12-14T18:32:16.313Z,3.47
2022-12-14T18:34:45.906Z,3.17
2022-12-14T18:37:18.713Z,3.88
2022-12-14T18:39:53.286Z,3.63
2022-12-14T18:42:23.750Z,3.38
2022-12-14T18:44:53.701Z,3.53
2022-12-14T18:47:41.236Z,3.70
2022-12-14T18:50:13.414Z,3.50
2022-12-14T18:52:43.131Z,3.55
2022-12-14T18:55:42.199Z,3.65
2022-12-14T18:58:20.762Z,3.13
2022-12-14T19:00:53.021Z,4.05
2022-12-14T19:03:23.359Z,3.40
2022-12-14T19:05:53.190Z,3.05
2022-12-14T19:08:22.753Z,4.13
2022-12-14T19:10:52.738Z,3.60
2022-12-14T19:13:25.748Z,3.60
2022-12-14T19:16:00.043Z,3.58
2022-12-14T19:18:30.878Z,3.28
2022-12-14T19:21:07.731Z,3.95
2022-12-14T19:23:38.397Z,3.53
2022-12-14T19:26:09.206Z,4.47
2022-12-14T19:28:39.860Z,3.42
2022-12-14T19:31:13.055Z,3.72
2022-12-14T19:33:43.242Z,3.70
2022-12-14T19:36:14.361Z,2.97
2022-12-14T19:38:49.650Z,3.53
2022-12-14T19:41:21.847Z,3.13
2022-12-14T19:43:52.085Z,4.35
2022-12-14T19:46:23.005Z,3.53
2022-12-14T19:48:59.083Z,3.40
2022-12-14T19:51:29.411Z,3.28
2022-12-14T19:53:59.581Z,3.33
2022-12-14T19:56:29.928Z,3.58
2022-12-14T19:59:04.979Z,3.90
2022-12-14T20:01:43.316Z,3.90
2022-12-14T20:04:16.474Z,3.70
2022-12-14T20:06:46.839Z,3.72
2022-12-14T20:09:18.365Z,3.95
2022-12-14T20:11:48.262Z,3.92
2022-12-14T20:14:17.847Z,3.95
2022-12-14T20:16:47.483Z,3.45
2022-12-14T20:19:17.189Z,3.83
2022-12-14T20:21:46.921Z,4.00
2022-12-14T20:24:16.606Z,3.60
2022-12-14T20:26:46.228Z,3.20
2022-12-14T20:29:19.021Z,4.10
2022-12-14T20:31:48.755Z,3.65
2022-12-14T20:34:18.623Z,3.60
2022-12-14T20:36:48.230Z,3.42
2022-12-14T20:39:17.761Z,3.80
2022-12-14T20:41:47.401Z,3.47
2022-12-14T20:44:17.713Z,3.50
2022-12-14T20:46:48.463Z,3.80
2022-12-14T20:49:20.747Z,3.67
2022-12-14T20:51:51.042Z,4.32
2022-12-14T20:54:23.706Z,3.58
2022-12-14T20:56:53.264Z,3.90
2022-12-14T20:59:22.793Z,4.20
2022-12-14T21:01:56.267Z,4.35
2022-12-14T21:04:26.712Z,4.35
2022-12-14T21:06:56.418Z,4.07
2022-12-14T21:09:26.054Z,4.50
2022-12-14T21:12:13.729Z,3.95
2022-12-14T21:14:44.480Z,4.18
2022-12-14T21:17:14.071Z,4.18
2022-12-14T21:19:43.831Z,3.70
2022-12-14T21:22:18.206Z,4.10
2022-12-14T21:25:05.156Z,3.53
2022-12-14T21:27:39.526Z,3.90
2022-12-14T21:30:11.923Z,3.45
2022-12-14T21:32:41.617Z,4.07
2022-12-14T21:35:12.017Z,3.50
2022-12-14T21:37:41.641Z,4.05
2022-12-14T21:40:31.201Z,3.67
2022-12-14T21:43:00.760Z,4.15
2022-12-14T21:45:30.401Z,4.78
2022-12-14T21:47:59.967Z,3.75
2022-12-14T21:50:29.557Z,3.90
2022-12-14T21:52:59.137Z,3.92
2022-12-14T21:55:28.661Z,3.97
2022-12-14T21:58:16.227Z,3.88
2022-12-14T22:00:46.863Z,5.70
2022-12-14T22:03:16.648Z,4.25
2022-12-14T22:05:46.184Z,3.90
2022-12-14T22:08:15.739Z,3.80
2022-12-14T22:10:45.316Z,4.40
2022-12-14T22:13:14.860Z,3.17
2022-12-14T22:15:44.431Z,3.58
2022-12-14T22:18:14.051Z,4.18
2022-12-14T22:20:43.574Z,3.95
2022-12-14T22:23:13.081Z,3.72
2022-12-14T22:25:51.711Z,3.97
2022-12-14T22:28:21.314Z,4.10
2022-12-14T22:30:50.878Z,3.45
2022-12-14T22:33:20.459Z,4.20
2022-12-14T22:35:50.012Z,3.85
2022-12-14T22:38:19.615Z,3.67
2022-12-14T22:40:49.196Z,3.90
2022-12-14T22:43:20.774Z,3.72
2022-12-14T22:45:55.041Z,3.65
2022-12-14T22:48:24.839Z,3.78
2022-12-14T22:50:54.565Z,4.20
2022-12-14T22:53:24.158Z,3.80
2022-12-14T22:55:54.269Z,3.45
2022-12-14T22:58:25.393Z,3.97
2022-12-14T23:00:55.650Z,4.03
2022-12-14T23:03:27.181Z,3.72
2022-12-14T23:06:01.977Z,4.30
2022-12-14T23:08:31.954Z,3.35
2022-12-14T23:11:19.437Z,3.90
2022-12-14T23:14:07.071Z,4.05
2022-12-14T23:16:54.704Z,4.47
2022-12-14T23:19:42.091Z,3.47
2022-12-14T23:22:29.373Z,4.07
2022-12-14T23:25:17.158Z,4.00
2022-12-14T23:28:04.753Z,4.05
2022-12-14T23:30:52.483Z,4.45
2022-12-14T23:33:39.843Z,4.43
2022-12-14T23:36:27.706Z,4.40
2022-12-14T23:39:15.441Z,4.38
2022-12-14T23:42:03.192Z,4.10
2022-12-14T23:44:51.047Z,3.92
2022-12-14T23:47:38.655Z,4.28
2022-12-14T23:50:26.988Z,3.88
2022-12-14T23:53:14.806Z,4.65
2022-12-14T23:56:02.680Z,4.47
2022-12-14T23:58:52.318Z,3.90
